sensor_id;sensor_type;location;lat;lon;timestamp;pressure;altitude;pressure_sealevel;temperature;humidity
6038;BME280;3047;42.600;23.470;2023-08-31T00:00:34;92611.41;;;19.85;78.36
6038;BME280;3047;42.600;23.470;2023-08-31T00:03:01;92616.09;;;19.91;79.28
6038;BME280;3047;42.600;23.470;2023-08-31T00:05:28;92618.44;;;19.94;78.85
6038;BME280;3047;42.600;23.470;2023-08-31T00:07:55;92614.22;;;19.93;78.75
6038;BME280;3047;42.600;23.470;2023-08-31T00:10:23;92614.94;;;19.95;78.41
6038;BME280;3047;42.600;23.470;2023-08-31T00:12:51;92615.63;;;19.86;79.15
6038;BME280;3047;42.600;23.470;2023-08-31T00:15:17;92614.47;;;19.90;79.35
6038;BME280;3047;42.600;23.470;2023-08-31T00:17:44;92608.19;;;19.94;79.27
6038;BME280;3047;42.600;23.470;2023-08-31T00:20:11;92608.75;;;19.86;78.83
6038;BME280;3047;42.600;23.470;2023-08-31T00:22:38;92610.31;;;19.76;79.89
6038;BME280;3047;42.600;23.470;2023-08-31T00:25:05;92614.19;;;19.82;79.57
6038;BME280;3047;42.600;23.470;2023-08-31T00:27:35;92592.91;;;19.68;79.90
6038;BME280;3047;42.600;23.470;2023-08-31T00:30:04;92611.72;;;19.80;80.06
6038;BME280;3047;42.600;23.470;2023-08-31T00:32:32;92609.88;;;19.82;79.97
6038;BME280;3047;42.600;23.470;2023-08-31T00:35:00;92607.19;;;19.84;79.34
6038;BME280;3047;42.600;23.470;2023-08-31T00:37:28;92620.41;;;19.90;79.60
6038;BME280;3047;42.600;23.470;2023-08-31T00:39:57;92614.09;;;19.83;79.67
6038;BME280;3047;42.600;23.470;2023-08-31T00:42:23;92567.38;;;19.43;79.90
6038;BME280;3047;42.600;23.470;2023-08-31T00:44:52;92620.13;;;19.82;79.97
6038;BME280;3047;42.600;23.470;2023-08-31T00:47:19;92626.75;;;19.73;80.45
6038;BME280;3047;42.600;23.470;2023-08-31T00:49:46;92624.72;;;19.66;81.37
6038;BME280;3047;42.600;23.470;2023-08-31T00:52:14;92626.50;;;19.76;80.64
6038;BME280;3047;42.600;23.470;2023-08-31T00:54:42;92627.97;;;19.68;80.87
6038;BME280;3047;42.600;23.470;2023-08-31T00:57:08;92638.63;;;19.74;80.36
6038;BME280;3047;42.600;23.470;2023-08-31T00:59:35;92635.44;;;19.71;80.48
6038;BME280;3047;42.600;23.470;2023-08-31T01:02:07;92631.16;;;19.71;80.55
6038;BME280;3047;42.600;23.470;2023-08-31T01:04:47;92636.09;;;19.62;81.08
6038;BME280;3047;42.600;23.470;2023-08-31T01:07:21;92639.50;;;19.62;80.90
6038;BME280;3047;42.600;23.470;2023-08-31T01:09:57;92633.94;;;19.56;81.13
6038;BME280;3047;42.600;23.470;2023-08-31T01:12:37;92632.78;;;19.60;81.58
6038;BME280;3047;42.600;23.470;2023-08-31T01:15:10;92631.81;;;19.62;80.64
6038;BME280;3047;42.600;23.470;2023-08-31T01:17:41;92629.25;;;19.62;80.94
6038;BME280;3047;42.600;23.470;2023-08-31T01:20:11;92636.81;;;19.51;81.56
6038;BME280;3047;42.600;23.470;2023-08-31T01:22:44;92636.97;;;19.37;81.82
6038;BME280;3047;42.600;23.470;2023-08-31T01:25:15;92642.31;;;19.34;81.42
6038;BME280;3047;42.600;23.470;2023-08-31T01:27:43;92639.22;;;19.41;81.31
6038;BME280;3047;42.600;23.470;2023-08-31T01:30:10;92631.69;;;19.51;80.31
6038;BME280;3047;42.600;23.470;2023-08-31T01:32:39;92638.59;;;19.38;81.35
6038;BME280;3047;42.600;23.470;2023-08-31T01:35:12;92636.41;;;19.20;82.41
6038;BME280;3047;42.600;23.470;2023-08-31T01:37:44;92641.81;;;19.29;81.81
6038;BME280;3047;42.600;23.470;2023-08-31T01:40:15;92625.69;;;19.39;81.38
6038;BME280;3047;42.600;23.470;2023-08-31T01:42:45;92647.06;;;19.51;81.52
6038;BME280;3047;42.600;23.470;2023-08-31T01:45:19;92645.13;;;19.55;80.17
6038;BME280;3047;42.600;23.470;2023-08-31T01:47:46;92645.44;;;19.50;79.95
6038;BME280;3047;42.600;23.470;2023-08-31T01:50:13;92648.00;;;19.63;79.48
6038;BME280;3047;42.600;23.470;2023-08-31T01:52:40;92648.53;;;19.79;79.25
6038;BME280;3047;42.600;23.470;2023-08-31T01:55:07;92640.19;;;19.64;79.50
6038;BME280;3047;42.600;23.470;2023-08-31T01:57:35;92639.88;;;19.69;79.59
6038;BME280;3047;42.600;23.470;2023-08-31T02:00:05;92636.59;;;19.67;80.47
6038;BME280;3047;42.600;23.470;2023-08-31T02:02:31;92644.19;;;19.56;81.36
6038;BME280;3047;42.600;23.470;2023-08-31T02:04:58;92647.06;;;19.51;81.94
6038;BME280;3047;42.600;23.470;2023-08-31T02:07:26;92655.91;;;19.47;81.54
6038;BME280;3047;42.600;23.470;2023-08-31T02:09:53;92651.41;;;19.38;82.18
6038;BME280;3047;42.600;23.470;2023-08-31T02:12:20;92650.19;;;19.31;82.87
6038;BME280;3047;42.600;23.470;2023-08-31T02:14:48;92638.31;;;19.30;83.30
6038;BME280;3047;42.600;23.470;2023-08-31T02:17:15;92647.00;;;19.40;82.30
6038;BME280;3047;42.600;23.470;2023-08-31T02:19:41;92627.50;;;19.13;82.65
6038;BME280;3047;42.600;23.470;2023-08-31T02:22:14;92655.97;;;19.21;83.25
6038;BME280;3047;42.600;23.470;2023-08-31T02:24:40;92594.88;;;18.78;83.25
6038;BME280;3047;42.600;23.470;2023-08-31T02:27:07;92645.50;;;19.24;83.58
6038;BME280;3047;42.600;23.470;2023-08-31T02:29:34;92653.06;;;19.26;83.14
6038;BME280;3047;42.600;23.470;2023-08-31T02:32:05;92653.06;;;19.26;82.57
6038;BME280;3047;42.600;23.470;2023-08-31T02:34:32;92656.78;;;19.22;83.03
6038;BME280;3047;42.600;23.470;2023-08-31T02:37:03;92659.56;;;19.06;83.74
6038;BME280;3047;42.600;23.470;2023-08-31T02:39:31;92612.41;;;18.85;83.37
6038;BME280;3047;42.600;23.470;2023-08-31T02:41:58;92663.97;;;19.17;83.10
6038;BME280;3047;42.600;23.470;2023-08-31T02:44:25;92668.88;;;19.07;83.66
6038;BME280;3047;42.600;23.470;2023-08-31T02:46:51;92667.44;;;19.03;84.10
6038;BME280;3047;42.600;23.470;2023-08-31T02:49:19;92666.94;;;18.98;84.57
6038;BME280;3047;42.600;23.470;2023-08-31T02:51:46;92667.34;;;19.05;84.28
6038;BME280;3047;42.600;23.470;2023-08-31T02:54:14;92664.06;;;18.90;85.20
6038;BME280;3047;42.600;23.470;2023-08-31T02:56:41;92664.56;;;18.95;84.49
6038;BME280;3047;42.600;23.470;2023-08-31T02:59:08;92665.31;;;18.84;85.63
6038;BME280;3047;42.600;23.470;2023-08-31T03:01:34;92664.28;;;18.87;85.61
6038;BME280;3047;42.600;23.470;2023-08-31T03:04:01;92620.88;;;18.60;84.99
6038;BME280;3047;42.600;23.470;2023-08-31T03:06:31;92672.97;;;18.97;84.32
6038;BME280;3047;42.600;23.470;2023-08-31T03:09:00;92652.31;;;18.74;85.14
6038;BME280;3047;42.600;23.470;2023-08-31T03:11:26;92670.50;;;18.83;85.89
6038;BME280;3047;42.600;23.470;2023-08-31T03:13:53;92675.44;;;18.86;85.38
6038;BME280;3047;42.600;23.470;2023-08-31T03:16:29;92680.44;;;18.87;85.12
6038;BME280;3047;42.600;23.470;2023-08-31T03:18:56;92672.16;;;18.84;84.52
6038;BME280;3047;42.600;23.470;2023-08-31T03:21:31;92684.75;;;18.87;85.42
6038;BME280;3047;42.600;23.470;2023-08-31T03:23:59;92686.91;;;18.80;85.54
6038;BME280;3047;42.600;23.470;2023-08-31T03:26:25;92690.59;;;18.76;85.51
6038;BME280;3047;42.600;23.470;2023-08-31T03:28:52;92702.66;;;18.74;85.61
6038;BME280;3047;42.600;23.470;2023-08-31T03:31:22;92697.53;;;18.74;85.79
6038;BME280;3047;42.600;23.470;2023-08-31T03:33:49;92694.88;;;18.75;86.04
6038;BME280;3047;42.600;23.470;2023-08-31T03:36:16;92694.22;;;18.59;86.28
6038;BME280;3047;42.600;23.470;2023-08-31T03:38:44;92696.19;;;18.56;86.76
6038;BME280;3047;42.600;23.470;2023-08-31T03:41:14;92696.19;;;18.56;86.85
6038;BME280;3047;42.600;23.470;2023-08-31T03:43:41;92695.75;;;18.62;86.04
6038;BME280;3047;42.600;23.470;2023-08-31T03:46:12;92699.84;;;18.51;86.91
6038;BME280;3047;42.600;23.470;2023-08-31T03:48:41;92696.75;;;18.59;86.29
6038;BME280;3047;42.600;23.470;2023-08-31T03:51:08;92689.19;;;18.45;86.89
6038;BME280;3047;42.600;23.470;2023-08-31T03:53:34;92701.16;;;18.44;86.69
6038;BME280;3047;42.600;23.470;2023-08-31T03:56:03;92670.34;;;18.33;87.09
6038;BME280;3047;42.600;23.470;2023-08-31T03:58:39;92702.75;;;18.33;87.66
6038;BME280;3047;42.600;23.470;2023-08-31T04:01:07;92710.53;;;18.31;88.44
6038;BME280;3047;42.600;23.470;2023-08-31T04:03:35;92705.31;;;18.33;88.50
6038;BME280;3047;42.600;23.470;2023-08-31T04:06:02;92715.84;;;18.28;88.77
6038;BME280;3047;42.600;23.470;2023-08-31T04:08:30;92719.25;;;18.41;88.17
6038;BME280;3047;42.600;23.470;2023-08-31T04:10:57;92739.00;;;18.39;88.34
6038;BME280;3047;42.600;23.470;2023-08-31T04:13:28;92739.34;;;18.47;88.08
6038;BME280;3047;42.600;23.470;2023-08-31T04:15:56;92743.41;;;18.50;87.58
6038;BME280;3047;42.600;23.470;2023-08-31T04:18:23;92755.28;;;18.51;87.17
6038;BME280;3047;42.600;23.470;2023-08-31T04:20:50;92743.66;;;18.60;87.14
6038;BME280;3047;42.600;23.470;2023-08-31T04:23:17;92744.47;;;18.60;87.53
6038;BME280;3047;42.600;23.470;2023-08-31T04:25:44;92742.53;;;18.64;87.52
6038;BME280;3047;42.600;23.470;2023-08-31T04:28:11;92755.47;;;18.75;86.35
6038;BME280;3047;42.600;23.470;2023-08-31T04:30:42;92758.34;;;18.83;85.85
6038;BME280;3047;42.600;23.470;2023-08-31T04:33:10;92754.97;;;18.95;84.76
6038;BME280;3047;42.600;23.470;2023-08-31T04:35:38;92754.38;;;19.05;85.62
6038;BME280;3047;42.600;23.470;2023-08-31T04:38:08;92756.94;;;19.17;85.24
6038;BME280;3047;42.600;23.470;2023-08-31T04:40:38;92756.22;;;19.15;84.93
6038;BME280;3047;42.600;23.470;2023-08-31T04:43:07;92753.25;;;19.21;85.03
6038;BME280;3047;42.600;23.470;2023-08-31T04:45:33;92751.38;;;19.36;85.64
6038;BME280;3047;42.600;23.470;2023-08-31T04:48:02;92690.78;;;18.98;85.23
6038;BME280;3047;42.600;23.470;2023-08-31T04:50:29;92761.53;;;19.50;84.98
6038;BME280;3047;42.600;23.470;2023-08-31T04:52:56;92763.78;;;19.55;84.21
6038;BME280;3047;42.600;23.470;2023-08-31T04:55:23;92759.25;;;19.59;84.63
6038;BME280;3047;42.600;23.470;2023-08-31T04:57:50;92753.53;;;19.68;84.67
6038;BME280;3047;42.600;23.470;2023-08-31T05:00:17;92756.19;;;19.79;84.14
6038;BME280;3047;42.600;23.470;2023-08-31T05:02:44;92752.00;;;19.78;83.56
6038;BME280;3047;42.600;23.470;2023-08-31T05:05:12;92755.03;;;19.83;82.16
6038;BME280;3047;42.600;23.470;2023-08-31T05:07:39;92752.34;;;19.85;82.44
6038;BME280;3047;42.600;23.470;2023-08-31T05:10:07;92760.78;;;19.87;82.72
6038;BME280;3047;42.600;23.470;2023-08-31T05:12:34;92755.53;;;19.88;82.37
6038;BME280;3047;42.600;23.470;2023-08-31T05:15:04;92760.75;;;19.99;81.47
6038;BME280;3047;42.600;23.470;2023-08-31T05:17:31;92734.47;;;19.72;80.98
6038;BME280;3047;42.600;23.470;2023-08-31T05:19:59;92756.50;;;20.11;81.60
6038;BME280;3047;42.600;23.470;2023-08-31T05:22:31;92763.13;;;20.27;83.15
6038;BME280;3047;42.600;23.470;2023-08-31T05:24:58;92760.69;;;20.36;84.32
6038;BME280;3047;42.600;23.470;2023-08-31T05:27:25;92764.13;;;20.48;82.73
6038;BME280;3047;42.600;23.470;2023-08-31T05:29:52;92763.97;;;20.51;82.67
6038;BME280;3047;42.600;23.470;2023-08-31T05:32:19;92760.34;;;20.54;84.99
6038;BME280;3047;42.600;23.470;2023-08-31T05:34:46;92754.81;;;20.71;84.79
6038;BME280;3047;42.600;23.470;2023-08-31T05:37:12;92765.00;;;20.84;84.10
6038;BME280;3047;42.600;23.470;2023-08-31T05:39:41;92765.38;;;20.90;82.22
6038;BME280;3047;42.600;23.470;2023-08-31T05:42:07;92760.59;;;20.97;81.93
6038;BME280;3047;42.600;23.470;2023-08-31T05:44:34;92769.50;;;21.04;84.99
6038;BME280;3047;42.600;23.470;2023-08-31T05:47:01;92747.53;;;21.00;85.67
6038;BME280;3047;42.600;23.470;2023-08-31T05:49:28;92770.78;;;21.10;85.20
6038;BME280;3047;42.600;23.470;2023-08-31T05:51:59;92772.56;;;21.20;85.25
6038;BME280;3047;42.600;23.470;2023-08-31T05:54:26;92776.91;;;21.31;84.23
6038;BME280;3047;42.600;23.470;2023-08-31T05:56:57;92785.13;;;21.36;83.60
6038;BME280;3047;42.600;23.470;2023-08-31T05:59:23;92781.47;;;21.39;83.77
6038;BME280;3047;42.600;23.470;2023-08-31T06:01:50;92783.81;;;21.42;83.35
6038;BME280;3047;42.600;23.470;2023-08-31T06:04:17;92773.09;;;21.48;82.35
6038;BME280;3047;42.600;23.470;2023-08-31T06:06:43;92775.19;;;21.54;82.02
6038;BME280;3047;42.600;23.470;2023-08-31T06:09:10;92756.63;;;21.39;80.37
6038;BME280;3047;42.600;23.470;2023-08-31T06:11:37;92778.94;;;21.50;81.84
6038;BME280;3047;42.600;23.470;2023-08-31T06:14:05;92783.50;;;21.58;82.65
6038;BME280;3047;42.600;23.470;2023-08-31T06:16:33;92784.81;;;21.63;81.72
6038;BME280;3047;42.600;23.470;2023-08-31T06:18:59;92786.66;;;21.72;79.81
6038;BME280;3047;42.600;23.470;2023-08-31T06:21:26;92788.88;;;21.77;79.51
6038;BME280;3047;42.600;23.470;2023-08-31T06:23:53;92788.97;;;21.87;77.91
6038;BME280;3047;42.600;23.470;2023-08-31T06:26:19;92786.75;;;21.93;77.59
6038;BME280;3047;42.600;23.470;2023-08-31T06:28:46;92796.09;;;21.83;77.47
6038;BME280;3047;42.600;23.470;2023-08-31T06:31:14;92800.91;;;21.77;76.23
6038;BME280;3047;42.600;23.470;2023-08-31T06:33:40;92808.97;;;21.72;78.55
6038;BME280;3047;42.600;23.470;2023-08-31T06:36:07;92807.56;;;21.90;76.58
6038;BME280;3047;42.600;23.470;2023-08-31T06:38:34;92809.41;;;22.00;75.57
6038;BME280;3047;42.600;23.470;2023-08-31T06:41:01;92756.53;;;21.63;74.88
6038;BME280;3047;42.600;23.470;2023-08-31T06:43:28;92819.25;;;21.94;71.32
6038;BME280;3047;42.600;23.470;2023-08-31T06:45:55;92820.44;;;22.02;72.06
6038;BME280;3047;42.600;23.470;2023-08-31T06:48:23;92820.19;;;22.16;68.08
6038;BME280;3047;42.600;23.470;2023-08-31T06:50:50;92818.78;;;22.23;68.29
6038;BME280;3047;42.600;23.470;2023-08-31T06:53:21;92821.59;;;22.20;67.25
6038;BME280;3047;42.600;23.470;2023-08-31T06:55:48;92828.72;;;22.28;65.51
6038;BME280;3047;42.600;23.470;2023-08-31T06:58:24;92824.75;;;22.35;67.14
6038;BME280;3047;42.600;23.470;2023-08-31T07:00:50;92829.41;;;22.41;66.89
6038;BME280;3047;42.600;23.470;2023-08-31T07:03:19;92828.09;;;22.58;64.69
6038;BME280;3047;42.600;23.470;2023-08-31T07:05:47;92831.81;;;22.65;65.86
6038;BME280;3047;42.600;23.470;2023-08-31T07:08:13;92828.66;;;22.61;63.34
6038;BME280;3047;42.600;23.470;2023-08-31T07:10:40;92832.38;;;22.68;63.81
6038;BME280;3047;42.600;23.470;2023-08-31T07:13:08;92832.72;;;22.75;63.55
6038;BME280;3047;42.600;23.470;2023-08-31T07:15:35;92832.13;;;22.71;64.29
6038;BME280;3047;42.600;23.470;2023-08-31T07:18:02;92795.88;;;22.63;63.98
6038;BME280;3047;42.600;23.470;2023-08-31T07:20:29;92842.16;;;22.86;63.64
6038;BME280;3047;42.600;23.470;2023-08-31T07:22:57;92840.16;;;22.89;63.30
6038;BME280;3047;42.600;23.470;2023-08-31T07:25:24;92843.22;;;22.83;63.03
6038;BME280;3047;42.600;23.470;2023-08-31T07:27:53;92842.41;;;22.94;63.10
6038;BME280;3047;42.600;23.470;2023-08-31T07:30:20;92845.28;;;23.01;62.83
6038;BME280;3047;42.600;23.470;2023-08-31T07:32:46;92845.25;;;23.12;62.20
6038;BME280;3047;42.600;23.470;2023-08-31T07:35:16;92841.19;;;23.09;63.33
6038;BME280;3047;42.600;23.470;2023-08-31T07:37:43;92847.41;;;23.28;60.17
6038;BME280;3047;42.600;23.470;2023-08-31T07:40:11;92852.06;;;23.34;59.91
6038;BME280;3047;42.600;23.470;2023-08-31T07:42:38;92844.81;;;23.28;58.82
6038;BME280;3047;42.600;23.470;2023-08-31T07:45:06;92848.72;;;23.43;59.87
6038;BME280;3047;42.600;23.470;2023-08-31T07:47:33;92796.44;;;23.10;59.64
6038;BME280;3047;42.600;23.470;2023-08-31T07:50:02;92854.94;;;23.40;60.04
6038;BME280;3047;42.600;23.470;2023-08-31T07:52:28;92850.31;;;23.55;61.53
6038;BME280;3047;42.600;23.470;2023-08-31T07:54:55;92845.19;;;23.65;59.80
6038;BME280;3047;42.600;23.470;2023-08-31T07:57:23;92856.34;;;23.86;59.75
6038;BME280;3047;42.600;23.470;2023-08-31T07:59:50;92829.84;;;23.84;57.27
6038;BME280;3047;42.600;23.470;2023-08-31T08:02:17;92858.66;;;24.20;58.42
6038;BME280;3047;42.600;23.470;2023-08-31T08:04:45;92845.72;;;24.41;58.52
6038;BME280;3047;42.600;23.470;2023-08-31T08:07:12;92857.88;;;24.79;56.26
6038;BME280;3047;42.600;23.470;2023-08-31T08:09:38;92860.25;;;25.11;57.39
6038;BME280;3047;42.600;23.470;2023-08-31T08:12:06;92862.56;;;25.34;54.90
6038;BME280;3047;42.600;23.470;2023-08-31T08:14:34;92858.75;;;25.48;54.24
6038;BME280;3047;42.600;23.470;2023-08-31T08:17:01;92867.56;;;25.84;52.77
6038;BME280;3047;42.600;23.470;2023-08-31T08:19:31;92856.03;;;26.16;52.20
6038;BME280;3047;42.600;23.470;2023-08-31T08:21:58;92848.41;;;26.51;51.34
6038;BME280;3047;42.600;23.470;2023-08-31T08:24:25;92858.75;;;26.79;49.63
6038;BME280;3047;42.600;23.470;2023-08-31T08:26:51;92860.16;;;26.91;48.88
6038;BME280;3047;42.600;23.470;2023-08-31T08:29:18;92859.00;;;27.03;50.59
6038;BME280;3047;42.600;23.470;2023-08-31T08:31:46;92842.81;;;27.19;49.40
6038;BME280;3047;42.600;23.470;2023-08-31T08:34:13;92855.75;;;27.37;47.89
6038;BME280;3047;42.600;23.470;2023-08-31T08:36:39;92838.16;;;27.49;47.38
6038;BME280;3047;42.600;23.470;2023-08-31T08:39:06;92853.47;;;27.78;48.22
6038;BME280;3047;42.600;23.470;2023-08-31T08:41:33;92838.00;;;27.94;45.23
6038;BME280;3047;42.600;23.470;2023-08-31T08:44:02;92847.63;;;28.28;45.69
6038;BME280;3047;42.600;23.470;2023-08-31T08:46:30;92847.25;;;28.49;44.01
6038;BME280;3047;42.600;23.470;2023-08-31T08:48:59;92852.16;;;28.68;43.92
6038;BME280;3047;42.600;23.470;2023-08-31T08:51:28;92850.94;;;28.89;43.50
6038;BME280;3047;42.600;23.470;2023-08-31T08:53:56;92852.31;;;29.01;42.67
6038;BME280;3047;42.600;23.470;2023-08-31T08:56:24;92847.44;;;29.14;41.04
6038;BME280;3047;42.600;23.470;2023-08-31T08:58:51;92848.59;;;29.28;41.55
6038;BME280;3047;42.600;23.470;2023-08-31T09:01:21;92848.28;;;29.39;42.30
6038;BME280;3047;42.600;23.470;2023-08-31T09:03:48;92843.06;;;29.47;41.47
6038;BME280;3047;42.600;23.470;2023-08-31T09:06:17;92847.31;;;29.56;39.48
6038;BME280;3047;42.600;23.470;2023-08-31T09:08:53;92846.81;;;29.69;39.69
6038;BME280;3047;42.600;23.470;2023-08-31T09:11:20;92843.88;;;29.80;39.47
6038;BME280;3047;42.600;23.470;2023-08-31T09:13:48;92847.28;;;29.89;37.44
6038;BME280;3047;42.600;23.470;2023-08-31T09:16:24;92806.09;;;29.93;38.81
6038;BME280;3047;42.600;23.470;2023-08-31T09:18:50;92831.78;;;30.12;39.67
6038;BME280;3047;42.600;23.470;2023-08-31T09:21:18;92838.47;;;30.07;40.68
6038;BME280;3047;42.600;23.470;2023-08-31T09:23:47;92819.09;;;30.01;39.28
6038;BME280;3047;42.600;23.470;2023-08-31T09:26:21;92840.44;;;30.04;38.42
6038;BME280;3047;42.600;23.470;2023-08-31T09:28:49;92847.47;;;29.71;36.20
6038;BME280;3047;42.600;23.470;2023-08-31T09:31:18;92848.47;;;29.62;35.58
6038;BME280;3047;42.600;23.470;2023-08-31T09:33:50;92842.47;;;29.62;36.70
6038;BME280;3047;42.600;23.470;2023-08-31T09:36:20;92847.63;;;29.86;35.51
6038;BME280;3047;42.600;23.470;2023-08-31T09:38:47;92835.22;;;30.04;34.05
6038;BME280;3047;42.600;23.470;2023-08-31T09:41:14;92836.50;;;30.09;32.65
6038;BME280;3047;42.600;23.470;2023-08-31T09:43:41;92841.56;;;30.02;33.82
6038;BME280;3047;42.600;23.470;2023-08-31T09:46:08;92845.03;;;29.94;34.47
6038;BME280;3047;42.600;23.470;2023-08-31T09:48:36;92824.34;;;29.93;33.98
6038;BME280;3047;42.600;23.470;2023-08-31T09:51:04;92821.69;;;30.09;34.13
6038;BME280;3047;42.600;23.470;2023-08-31T09:53:36;92835.19;;;30.29;34.22
6038;BME280;3047;42.600;23.470;2023-08-31T09:56:04;92839.53;;;30.45;33.27
6038;BME280;3047;42.600;23.470;2023-08-31T09:58:32;92833.88;;;30.25;33.47
6038;BME280;3047;42.600;23.470;2023-08-31T10:00:59;92770.00;;;29.81;33.34
6038;BME280;3047;42.600;23.470;2023-08-31T10:03:28;92833.25;;;30.23;33.94
6038;BME280;3047;42.600;23.470;2023-08-31T10:05:55;92812.13;;;29.93;33.66
6038;BME280;3047;42.600;23.470;2023-08-31T10:08:23;92825.59;;;30.13;34.82
6038;BME280;3047;42.600;23.470;2023-08-31T10:10:53;92830.84;;;29.89;34.34
6038;BME280;3047;42.600;23.470;2023-08-31T10:13:21;92836.88;;;29.73;34.80
6038;BME280;3047;42.600;23.470;2023-08-31T10:15:49;92825.34;;;29.51;34.77
6038;BME280;3047;42.600;23.470;2023-08-31T10:18:15;92836.38;;;29.28;34.63
6038;BME280;3047;42.600;23.470;2023-08-31T10:20:43;92837.53;;;29.34;35.61
6038;BME280;3047;42.600;23.470;2023-08-31T10:23:10;92825.34;;;29.43;34.74
6038;BME280;3047;42.600;23.470;2023-08-31T10:26:03;92825.34;;;29.10;33.25
6038;BME280;3047;42.600;23.470;2023-08-31T10:28:39;92831.78;;;28.90;34.25
6038;BME280;3047;42.600;23.470;2023-08-31T10:31:07;92819.53;;;28.74;36.15
6038;BME280;3047;42.600;23.470;2023-08-31T10:33:35;92821.88;;;28.93;37.06
6038;BME280;3047;42.600;23.470;2023-08-31T10:36:10;92835.16;;;28.82;36.44
6038;BME280;3047;42.600;23.470;2023-08-31T10:38:37;92820.31;;;28.58;36.86
6038;BME280;3047;42.600;23.470;2023-08-31T10:41:21;92834.28;;;28.31;37.11
6038;BME280;3047;42.600;23.470;2023-08-31T10:43:52;92788.00;;;27.66;36.98
6038;BME280;3047;42.600;23.470;2023-08-31T10:46:27;92848.06;;;27.89;36.97
6038;BME280;3047;42.600;23.470;2023-08-31T10:48:55;92846.44;;;27.70;37.18
6038;BME280;3047;42.600;23.470;2023-08-31T10:51:23;92846.41;;;27.44;38.01
6038;BME280;3047;42.600;23.470;2023-08-31T10:53:51;92838.56;;;27.36;37.80
6038;BME280;3047;42.600;23.470;2023-08-31T10:56:18;92847.91;;;27.29;37.31
6038;BME280;3047;42.600;23.470;2023-08-31T10:58:58;92851.75;;;27.25;38.26
6038;BME280;3047;42.600;23.470;2023-08-31T11:01:53;92849.69;;;27.10;38.74
6038;BME280;3047;42.600;23.470;2023-08-31T11:04:20;92861.91;;;27.18;37.50
6038;BME280;3047;42.600;23.470;2023-08-31T11:06:47;92851.38;;;27.20;37.60
6038;BME280;3047;42.600;23.470;2023-08-31T11:09:19;92844.34;;;27.12;37.83
6038;BME280;3047;42.600;23.470;2023-08-31T11:11:45;92849.53;;;27.30;38.05
6038;BME280;3047;42.600;23.470;2023-08-31T11:14:14;92839.34;;;27.54;37.50
6038;BME280;3047;42.600;23.470;2023-08-31T11:16:41;92849.53;;;27.92;37.46
6038;BME280;3047;42.600;23.470;2023-08-31T11:19:09;92825.78;;;28.13;37.34
6038;BME280;3047;42.600;23.470;2023-08-31T11:21:36;92846.75;;;28.45;35.53
6038;BME280;3047;42.600;23.470;2023-08-31T11:24:04;92834.47;;;28.72;35.30
6038;BME280;3047;42.600;23.470;2023-08-31T11:26:32;92842.00;;;28.91;34.21
6038;BME280;3047;42.600;23.470;2023-08-31T11:28:58;92842.72;;;29.10;36.18
6038;BME280;3047;42.600;23.470;2023-08-31T11:31:26;92834.13;;;29.25;33.88
6038;BME280;3047;42.600;23.470;2023-08-31T11:33:54;92841.09;;;29.33;33.76
6038;BME280;3047;42.600;23.470;2023-08-31T11:36:21;92845.66;;;29.39;33.10
6038;BME280;3047;42.600;23.470;2023-08-31T11:38:48;92839.97;;;29.52;34.27
6038;BME280;3047;42.600;23.470;2023-08-31T11:41:15;92839.19;;;29.76;34.05
6038;BME280;3047;42.600;23.470;2023-08-31T11:43:42;92839.00;;;29.77;34.08
6038;BME280;3047;42.600;23.470;2023-08-31T11:46:09;92834.94;;;29.91;33.79
6038;BME280;3047;42.600;23.470;2023-08-31T11:48:39;92825.31;;;29.92;33.47
6038;BME280;3047;42.600;23.470;2023-08-31T11:51:06;92837.19;;;30.02;33.00
6038;BME280;3047;42.600;23.470;2023-08-31T11:53:33;92841.09;;;30.07;33.86
6038;BME280;3047;42.600;23.470;2023-08-31T11:56:02;92834.94;;;29.75;34.41
6038;BME280;3047;42.600;23.470;2023-08-31T11:58:29;92833.47;;;29.31;34.90
6038;BME280;3047;42.600;23.470;2023-08-31T12:00:57;92830.34;;;29.12;35.50
6038;BME280;3047;42.600;23.470;2023-08-31T12:03:24;92831.88;;;28.80;36.26
6038;BME280;3047;42.600;23.470;2023-08-31T12:05:53;92827.44;;;28.56;35.88
6038;BME280;3047;42.600;23.470;2023-08-31T12:08:27;92830.16;;;28.38;36.77
6038;BME280;3047;42.600;23.470;2023-08-31T12:10:54;92828.09;;;28.16;37.20
6038;BME280;3047;42.600;23.470;2023-08-31T12:13:25;92839.84;;;28.02;36.95
6038;BME280;3047;42.600;23.470;2023-08-31T12:15:54;92838.13;;;27.84;37.38
6038;BME280;3047;42.600;23.470;2023-08-31T12:18:21;92828.94;;;27.72;38.31
6038;BME280;3047;42.600;23.470;2023-08-31T12:20:50;92807.38;;;27.54;39.62
6038;BME280;3047;42.600;23.470;2023-08-31T12:23:18;92835.63;;;27.75;39.02
6038;BME280;3047;42.600;23.470;2023-08-31T12:25:48;92828.00;;;27.73;39.13
6038;BME280;3047;42.600;23.470;2023-08-31T12:28:15;92825.94;;;27.59;40.66
6038;BME280;3047;42.600;23.470;2023-08-31T12:30:45;92802.06;;;27.55;40.17
6038;BME280;3047;42.600;23.470;2023-08-31T12:33:12;92826.81;;;27.68;41.24
6038;BME280;3047;42.600;23.470;2023-08-31T12:35:39;92824.66;;;27.63;40.32
6038;BME280;3047;42.600;23.470;2023-08-31T12:38:06;92817.19;;;27.60;41.20
6038;BME280;3047;42.600;23.470;2023-08-31T12:40:34;92825.72;;;27.52;40.02
6038;BME280;3047;42.600;23.470;2023-08-31T12:43:01;92829.66;;;27.39;40.49
6038;BME280;3047;42.600;23.470;2023-08-31T12:45:28;92821.28;;;27.45;42.30
6038;BME280;3047;42.600;23.470;2023-08-31T12:47:55;92826.47;;;27.45;41.34
6038;BME280;3047;42.600;23.470;2023-08-31T12:50:21;92830.31;;;27.41;40.73
6038;BME280;3047;42.600;23.470;2023-08-31T12:52:48;92829.66;;;27.39;40.28
6038;BME280;3047;42.600;23.470;2023-08-31T12:55:15;92805.16;;;27.15;40.25
6038;BME280;3047;42.600;23.470;2023-08-31T12:57:43;92826.28;;;27.20;40.96
6038;BME280;3047;42.600;23.470;2023-08-31T13:00:11;92825.09;;;27.15;41.62
6038;BME280;3047;42.600;23.470;2023-08-31T13:02:38;92822.09;;;27.09;41.33
6038;BME280;3047;42.600;23.470;2023-08-31T13:05:06;92822.03;;;26.83;41.32
6038;BME280;3047;42.600;23.470;2023-08-31T13:07:33;92798.38;;;26.69;42.11
6038;BME280;3047;42.600;23.470;2023-08-31T13:10:00;92812.16;;;26.69;43.48
6038;BME280;3047;42.600;23.470;2023-08-31T13:12:29;92825.59;;;26.82;43.16
6038;BME280;3047;42.600;23.470;2023-08-31T13:14:58;92830.53;;;26.76;42.58